createdAt,value
2019-03-22T00:00:20.092Z,100.00
2019-03-22T00:02:49.412Z,100.00
2019-03-22T00:05:19.399Z,100.00
2019-03-22T00:07:48.862Z,100.00
2019-03-22T00:10:18.806Z,100.00
2019-03-22T00:12:48.112Z,100.00
2019-03-22T00:15:17.420Z,100.00
2019-03-22T00:17:46.740Z,100.00
2019-03-22T00:20:16.394Z,100.00
2019-03-22T00:22:45.700Z,100.00
2019-03-22T00:25:15.198Z,100.00
2019-03-22T00:27:44.495Z,100.00
2019-03-22T00:30:14.113Z,100.00
2019-03-22T00:32:43.513Z,100.00
2019-03-22T00:35:14.026Z,100.00
2019-03-22T00:37:43.344Z,100.00
2019-03-22T00:40:13.156Z,100.00
2019-03-22T00:42:42.482Z,100.00
2019-03-22T00:45:12.341Z,100.00
2019-03-22T00:47:41.727Z,100.00
2019-03-22T00:50:12.786Z,100.00
2019-03-22T00:52:42.089Z,100.00
2019-03-22T00:55:11.843Z,100.00
2019-03-22T00:57:41.425Z,100.00
2019-03-22T01:00:15.869Z,100.00
2019-03-22T01:02:45.154Z,100.00
2019-03-22T01:05:16.255Z,100.00
2019-03-22T01:07:45.807Z,100.00
2019-03-22T01:10:15.265Z,100.00
2019-03-22T01:12:44.552Z,100.00
2019-03-22T01:15:14.543Z,100.00
2019-03-22T01:17:44.213Z,100.00
2019-03-22T01:20:14.139Z,100.00
2019-03-22T01:22:43.621Z,100.00
2019-03-22T01:25:13.418Z,100.00
2019-03-22T01:27:45.815Z,100.00
2019-03-22T01:30:18.636Z,100.00
2019-03-22T01:32:47.916Z,100.00
2019-03-22T01:35:17.233Z,100.00
2019-03-22T01:37:46.553Z,100.00
2019-03-22T01:40:16.404Z,100.00
2019-03-22T01:42:45.684Z,100.00
2019-03-22T01:45:16.437Z,100.00
2019-03-22T01:47:45.788Z,100.00
2019-03-22T01:50:16.969Z,100.00
2019-03-22T01:52:46.420Z,100.00
2019-03-22T01:55:15.914Z,100.00
2019-03-22T01:57:53.277Z,100.00
2019-03-22T02:00:18.243Z,100.00
2019-03-22T02:02:47.565Z,100.00
2019-03-22T02:05:16.940Z,100.00
2019-03-22T02:07:46.295Z,100.00
2019-03-22T02:10:15.807Z,100.00
2019-03-22T02:12:45.099Z,100.00
2019-03-22T02:15:18.001Z,100.00
2019-03-22T02:17:47.381Z,100.00
2019-03-22T02:20:17.926Z,100.00
2019-03-22T02:22:47.371Z,100.00
2019-03-22T02:25:17.126Z,100.00
2019-03-22T02:27:46.466Z,100.00
2019-03-22T02:30:18.044Z,100.00
2019-03-22T02:32:47.407Z,100.00
2019-03-22T02:35:28.451Z,100.00
2019-03-22T02:37:47.718Z,100.00
2019-03-22T02:40:17.066Z,100.00
2019-03-22T02:42:46.541Z,100.00
2019-03-22T02:45:16.463Z,100.00
2019-03-22T02:47:46.142Z,100.00
2019-03-22T02:50:19.464Z,100.00
2019-03-22T02:52:47.498Z,100.00
2019-03-22T02:55:16.803Z,100.00
2019-03-22T02:57:46.095Z,100.00
2019-03-22T03:00:17.346Z,100.00
2019-03-22T03:02:46.958Z,100.00
2019-03-22T03:05:16.771Z,100.00
2019-03-22T03:07:46.147Z,100.00
2019-03-22T03:10:17.026Z,100.00
2019-03-22T03:12:46.815Z,100.00
2019-03-22T03:15:19.459Z,100.00
2019-03-22T03:17:48.826Z,100.00
2019-03-22T03:20:19.563Z,100.00
2019-03-22T03:22:48.883Z,100.00
2019-03-22T03:25:18.611Z,100.00
2019-03-22T03:27:48.174Z,100.00
2019-03-22T03:30:22.122Z,100.00
2019-03-22T03:32:51.514Z,100.00
2019-03-22T03:35:20.899Z,100.00
2019-03-22T03:37:50.253Z,100.00
2019-03-22T03:40:19.716Z,100.00
2019-03-22T03:42:49.108Z,100.00
2019-03-22T03:45:32.066Z,100.00
2019-03-22T03:48:02.594Z,100.00
2019-03-22T03:50:32.682Z,100.00
2019-03-22T03:53:02.207Z,100.00
2019-03-22T03:55:31.687Z,100.00
2019-03-22T03:58:03.937Z,100.00
2019-03-22T04:00:33.801Z,100.00
2019-03-22T04:03:03.330Z,100.00
2019-03-22T04:05:32.750Z,100.00
2019-03-22T04:08:02.362Z,100.00
2019-03-22T04:10:32.262Z,100.00
2019-03-22T04:13:01.561Z,100.00
2019-03-22T04:15:30.878Z,100.00
2019-03-22T04:18:00.234Z,100.00
2019-03-22T04:20:29.538Z,100.00
2019-03-22T04:22:58.822Z,100.00
2019-03-22T04:25:28.790Z,100.00
2019-03-22T04:27:58.132Z,100.00
2019-03-22T04:30:27.460Z,100.00
2019-03-22T04:32:57.162Z,100.00
2019-03-22T04:35:26.615Z,100.00
2019-03-22T04:37:56.321Z,100.00
2019-03-22T04:40:27.716Z,100.00
2019-03-22T04:42:57.714Z,100.00
2019-03-22T04:45:29.538Z,100.00
2019-03-22T04:48:01.883Z,100.00
2019-03-22T04:50:34.322Z,100.00
2019-03-22T04:53:04.873Z,100.00
2019-03-22T04:55:36.205Z,100.00
2019-03-22T04:58:07.154Z,100.00
2019-03-22T05:00:37.767Z,100.00
2019-03-22T05:03:08.811Z,100.00
2019-03-22T05:05:38.999Z,100.00
2019-03-22T05:08:09.451Z,100.00
2019-03-22T05:10:39.671Z,100.00
2019-03-22T05:13:12.008Z,100.00
2019-03-22T05:15:42.630Z,100.00
2019-03-22T05:18:12.368Z,100.00
2019-03-22T05:20:44.476Z,100.00
2019-03-22T05:23:15.836Z,100.00
2019-03-22T05:25:47.199Z,100.00
2019-03-22T05:28:17.406Z,100.00
2019-03-22T05:31:10.581Z,100.00
2019-03-22T05:33:40.367Z,100.00
2019-03-22T05:36:09.647Z,100.00
2019-03-22T05:38:38.956Z,100.00
2019-03-22T05:41:08.315Z,100.00
2019-03-22T05:43:37.609Z,100.00
2019-03-22T05:46:06.963Z,100.00
2019-03-22T05:48:36.266Z,100.00
2019-03-22T05:51:05.559Z,100.00
2019-03-22T05:53:34.907Z,100.00
2019-03-22T05:56:04.226Z,100.00
2019-03-22T05:58:33.504Z,100.00
2019-03-22T06:01:03.093Z,100.00
2019-03-22T06:03:32.400Z,100.00
2019-03-22T06:06:01.687Z,100.00
2019-03-22T06:08:31.098Z,100.00
2019-03-22T06:11:00.503Z,100.00
2019-03-22T06:13:29.802Z,100.00
2019-03-22T06:15:59.120Z,100.00
2019-03-22T06:18:28.434Z,100.00
2019-03-22T06:20:57.698Z,100.00
2019-03-22T06:23:26.998Z,100.00
2019-03-22T06:25:56.299Z,100.00
2019-03-22T06:28:25.679Z,100.00
2019-03-22T06:30:54.991Z,100.00
2019-03-22T06:33:24.614Z,100.00
2019-03-22T06:35:53.923Z,100.00
2019-03-22T06:38:23.200Z,100.00
2019-03-22T06:40:52.605Z,100.00
2019-03-22T06:43:21.904Z,100.00
2019-03-22T06:45:51.219Z,100.00
2019-03-22T06:48:20.532Z,100.00
2019-03-22T06:50:49.846Z,100.00
2019-03-22T06:53:19.123Z,100.00
2019-03-22T06:55:48.510Z,100.00
2019-03-22T06:58:17.817Z,100.00
2019-03-22T07:00:47.145Z,100.00
2019-03-22T07:03:16.459Z,100.00
2019-03-22T07:05:45.744Z,100.00
2019-03-22T07:08:15.105Z,98.59
2019-03-22T07:10:44.465Z,96.87
2019-03-22T07:13:13.779Z,96.33
2019-03-22T07:15:43.072Z,95.85
2019-03-22T07:18:12.371Z,96.11
2019-03-22T07:20:41.958Z,92.85
2019-03-22T07:23:11.268Z,92.51
2019-03-22T07:25:40.586Z,93.73
2019-03-22T07:28:09.893Z,91.55
2019-03-22T07:30:39.206Z,88.66
2019-03-22T07:33:08.522Z,86.81
2019-03-22T07:35:37.808Z,87.51
2019-03-22T07:38:07.106Z,87.54
2019-03-22T07:40:36.492Z,89.19
2019-03-22T07:43:05.801Z,91.04
2019-03-22T07:45:35.096Z,89.11
2019-03-22T07:48:04.472Z,91.20
2019-03-22T07:50:34.095Z,91.04
2019-03-22T07:53:03.426Z,91.27
2019-03-22T07:55:33.138Z,88.59
2019-03-22T07:58:02.492Z,86.99
2019-03-22T08:00:32.250Z,86.30
2019-03-22T08:03:01.567Z,86.01
2019-03-22T08:05:30.847Z,86.98
2019-03-22T08:08:00.250Z,86.45
2019-03-22T08:10:29.609Z,86.94
2019-03-22T08:12:58.936Z,85.67
2019-03-22T08:15:32.335Z,83.63
2019-03-22T08:30:15.274Z,57.96
2019-03-22T08:32:44.553Z,55.94
2019-03-22T08:35:13.932Z,56.38
2019-03-22T08:37:52.105Z,57.06
2019-03-22T08:40:14.843Z,69.34
2019-03-22T08:42:44.332Z,65.61
2019-03-22T08:45:14.168Z,58.00
2019-03-22T08:47:43.479Z,54.43
2019-03-22T08:50:13.320Z,56.51
2019-03-22T08:52:42.624Z,52.13
2019-03-22T08:55:11.920Z,63.57
2019-03-22T08:57:41.350Z,60.58
2019-03-22T09:00:13.808Z,56.82
2019-03-22T09:02:43.071Z,55.95
2019-03-22T09:05:12.818Z,60.95
2019-03-22T09:07:42.235Z,59.52
2019-03-22T09:10:15.539Z,59.11
2019-03-22T09:12:44.861Z,54.99
2019-03-22T09:15:14.144Z,54.98
2019-03-22T09:17:43.466Z,57.38
2019-03-22T09:20:13.491Z,56.08
2019-03-22T09:22:42.745Z,60.03
2019-03-22T09:25:12.163Z,56.81
2019-03-22T09:27:41.522Z,55.75
2019-03-22T09:30:14.134Z,56.22
2019-03-22T09:32:43.678Z,56.90
2019-03-22T09:35:13.253Z,59.91
2019-03-22T09:37:43.039Z,60.35
2019-03-22T09:40:12.867Z,59.07
2019-03-22T09:42:42.489Z,55.83
2019-03-22T09:45:14.301Z,51.74
2019-03-22T09:47:43.909Z,55.06
2019-03-22T09:50:14.107Z,51.68
2019-03-22T09:52:43.587Z,51.92
2019-03-22T09:55:14.462Z,48.09
2019-03-22T09:57:44.306Z,44.79
2019-03-22T10:00:31.243Z,43.02
2019-03-22T10:03:01.546Z,51.60
2019-03-22T10:05:30.928Z,47.10
2019-03-22T10:08:00.590Z,46.28
2019-03-22T10:10:29.897Z,43.94
2019-03-22T10:12:59.271Z,41.87
2019-03-22T10:15:28.605Z,40.65
2019-03-22T10:20:26.231Z,39.72
2019-03-22T10:22:55.550Z,46.59
2019-03-22T10:25:24.838Z,45.07
2019-03-22T10:27:54.160Z,43.71
2019-03-22T10:30:23.605Z,46.15
2019-03-22T10:32:52.894Z,47.40
2019-03-22T10:35:26.468Z,46.02
2019-03-22T10:38:00.451Z,45.86
2019-03-22T10:40:24.278Z,48.05
2019-03-22T10:42:53.542Z,42.85
2019-03-22T10:45:22.848Z,41.27
2019-03-22T10:47:52.248Z,43.62
2019-03-22T10:50:21.535Z,44.00
2019-03-22T10:52:50.844Z,42.22
2019-03-22T10:55:29.800Z,44.24
2019-03-22T10:57:51.150Z,44.16
2019-03-22T11:00:20.495Z,41.19
2019-03-22T11:02:49.868Z,38.57
2019-03-22T11:05:19.168Z,38.35
2019-03-22T11:07:48.590Z,39.46
2019-03-22T11:10:17.964Z,36.59
2019-03-22T11:12:47.259Z,34.36
2019-03-22T11:15:17.019Z,32.85
2019-03-22T11:17:46.331Z,31.16
2019-03-22T11:20:17.872Z,31.23
2019-03-22T11:22:47.181Z,30.04
2019-03-22T11:25:16.856Z,28.69
2019-03-22T11:27:46.139Z,30.37
2019-03-22T11:30:19.002Z,30.54
2019-03-22T11:32:48.302Z,28.74
2019-03-22T11:35:17.880Z,33.21
2019-03-22T11:37:47.552Z,30.66
2019-03-22T11:40:18.648Z,27.27
2019-03-22T11:42:48.305Z,27.92
2019-03-22T11:45:20.432Z,30.12
2019-03-22T11:47:50.679Z,28.68
2019-03-22T11:50:19.990Z,29.72
2019-03-22T11:52:49.352Z,32.18
2019-03-22T11:55:18.923Z,31.71
2019-03-22T11:57:48.270Z,30.74
2019-03-22T12:00:20.643Z,31.87
2019-03-22T12:02:49.983Z,30.56
2019-03-22T12:05:20.897Z,32.50
2019-03-22T12:07:51.037Z,32.08
2019-03-22T12:10:21.474Z,31.03
2019-03-22T12:12:50.848Z,31.17
2019-03-22T12:15:22.671Z,31.92
2019-03-22T12:17:52.051Z,31.80
2019-03-22T12:20:24.943Z,31.08
2019-03-22T12:22:54.376Z,30.87
2019-03-22T12:25:25.695Z,29.58
2019-03-22T12:27:55.066Z,29.53
2019-03-22T12:30:24.438Z,32.09
2019-03-22T12:32:53.740Z,31.23
2019-03-22T12:35:23.219Z,34.39
2019-03-22T12:37:52.573Z,29.88
2019-03-22T12:40:22.941Z,30.21
2019-03-22T12:42:52.749Z,29.32
2019-03-22T12:45:30.965Z,29.74
2019-03-22T12:48:02.879Z,30.27
2019-03-22T12:50:32.451Z,29.41
2019-03-22T12:53:01.734Z,29.36
2019-03-22T12:55:31.052Z,28.78
2019-03-22T12:58:00.364Z,29.20
2019-03-22T13:00:29.871Z,31.75
2019-03-22T13:02:59.369Z,33.73
2019-03-22T13:05:28.662Z,34.45
2019-03-22T13:07:57.973Z,35.10
2019-03-22T13:10:28.626Z,35.36
2019-03-22T13:12:58.199Z,36.10
2019-03-22T13:15:27.498Z,36.74
2019-03-22T13:17:57.050Z,35.94
2019-03-22T13:20:26.510Z,36.33
2019-03-22T13:22:55.789Z,35.97
2019-03-22T13:25:25.083Z,36.75
2019-03-22T13:27:54.395Z,36.26
2019-03-22T13:30:35.067Z,36.55
2019-03-22T13:33:05.420Z,37.00
2019-03-22T13:35:35.085Z,37.20
2019-03-22T13:38:05.229Z,36.75
2019-03-22T13:40:34.526Z,36.89
2019-03-22T13:43:03.972Z,36.46
2019-03-22T13:45:33.365Z,37.60
2019-03-22T13:48:03.035Z,36.79
2019-03-22T13:50:32.399Z,37.10
2019-03-22T13:53:01.751Z,36.65
2019-03-22T13:55:31.059Z,37.67
2019-03-22T13:58:00.385Z,37.30
2019-03-22T14:00:29.850Z,37.04
2019-03-22T14:03:02.978Z,37.31
2019-03-22T14:05:30.210Z,37.39
2019-03-22T14:07:59.517Z,37.98
2019-03-22T14:10:33.521Z,37.26
2019-03-22T14:13:05.957Z,37.90
2019-03-22T14:15:35.338Z,36.88
2019-03-22T14:18:05.166Z,37.39
2019-03-22T14:20:34.554Z,37.76
2019-03-22T14:23:04.457Z,37.58
2019-03-22T14:25:33.809Z,38.35
2019-03-22T14:28:04.523Z,38.77
2019-03-22T14:30:33.901Z,38.37
2019-03-22T14:33:12.830Z,38.83
2019-03-22T14:35:34.315Z,39.06
2019-03-22T14:38:03.711Z,39.43
2019-03-22T14:40:32.999Z,39.18
2019-03-22T14:43:02.292Z,40.57
2019-03-22T14:45:31.627Z,40.00
2019-03-22T14:48:00.929Z,40.08
2019-03-22T14:50:30.225Z,40.30
2019-03-22T14:52:59.786Z,40.21
2019-03-22T14:55:29.095Z,40.12
2019-03-22T14:57:58.379Z,40.34
2019-03-22T15:00:28.034Z,39.77
2019-03-22T15:02:57.647Z,40.40
2019-03-22T15:05:27.285Z,40.11
2019-03-22T15:07:56.576Z,41.25
2019-03-22T15:10:25.879Z,39.96
2019-03-22T15:12:55.714Z,40.47
2019-03-22T15:15:29.359Z,40.87
2019-03-22T15:18:15.281Z,40.96
2019-03-22T15:21:04.245Z,40.76
2019-03-22T15:23:35.183Z,40.13
2019-03-22T15:26:06.316Z,40.94
2019-03-22T15:28:43.696Z,40.89
2019-03-22T15:31:17.498Z,41.14
2019-03-22T15:33:48.656Z,41.90
2019-03-22T15:36:32.639Z,40.56
2019-03-22T15:39:16.081Z,40.53
2019-03-22T15:41:45.635Z,40.79
2019-03-22T15:44:15.180Z,40.58
2019-03-22T15:46:44.498Z,41.13
2019-03-22T15:49:13.802Z,40.22
2019-03-22T15:51:43.361Z,39.54
2019-03-22T15:54:12.821Z,40.34
2019-03-22T15:56:42.104Z,40.13
2019-03-22T15:59:11.637Z,40.03
2019-03-22T16:01:40.918Z,38.55
2019-03-22T16:04:10.476Z,38.45
2019-03-22T16:06:39.963Z,39.05
2019-03-22T16:09:10.222Z,38.74
2019-03-22T16:11:39.572Z,37.29
2019-03-22T16:14:09.015Z,37.35
2019-03-22T16:16:38.651Z,37.37
2019-03-22T16:19:07.969Z,37.29
2019-03-22T16:21:37.237Z,37.37
2019-03-22T16:24:06.630Z,37.36
2019-03-22T16:26:35.920Z,37.23
2019-03-22T16:29:05.213Z,36.31
2019-03-22T16:31:34.680Z,36.06
2019-03-22T16:34:04.139Z,36.16
2019-03-22T16:36:33.413Z,35.69
2019-03-22T16:39:02.748Z,35.75
2019-03-22T16:41:32.051Z,35.88
2019-03-22T16:44:01.348Z,36.05
2019-03-22T16:46:30.653Z,35.40
2019-03-22T16:49:00.102Z,35.50
2019-03-22T16:51:29.407Z,35.71
2019-03-22T16:53:58.701Z,36.07
2019-03-22T16:56:28.083Z,35.75
2019-03-22T16:58:57.464Z,36.10
2019-03-22T17:01:26.748Z,36.47
2019-03-22T17:04:04.122Z,36.63
2019-03-22T17:06:27.041Z,36.83
2019-03-22T17:08:56.343Z,37.32
2019-03-22T17:11:25.631Z,36.73
2019-03-22T17:13:54.942Z,37.52
2019-03-22T17:16:24.216Z,37.70
2019-03-22T17:18:53.518Z,37.65
2019-03-22T17:21:22.796Z,38.10
2019-03-22T17:23:52.113Z,38.03
2019-03-22T17:26:21.389Z,38.40
2019-03-22T17:28:50.671Z,38.80
2019-03-22T17:31:19.994Z,38.56
2019-03-22T17:33:49.270Z,38.53
2019-03-22T17:36:18.546Z,39.38
2019-03-22T17:38:47.850Z,39.48
2019-03-22T17:41:17.355Z,39.36
2019-03-22T17:43:46.690Z,39.23
2019-03-22T17:46:15.979Z,39.64
2019-03-22T17:48:45.372Z,39.63
2019-03-22T17:51:14.648Z,39.20
2019-03-22T17:53:44.024Z,39.48
2019-03-22T17:56:13.347Z,39.81
2019-03-22T17:58:42.673Z,39.75
2019-03-22T18:01:12.025Z,40.10
2019-03-22T18:03:41.370Z,39.73
2019-03-22T18:06:10.680Z,41.00
2019-03-22T18:08:40.011Z,40.28
2019-03-22T18:11:09.307Z,40.83
2019-03-22T18:13:38.752Z,40.45
2019-03-22T18:16:08.078Z,40.42
2019-03-22T18:18:37.796Z,40.44
2019-03-22T18:21:07.090Z,40.10
2019-03-22T18:23:36.413Z,40.40
2019-03-22T18:26:05.794Z,40.65
2019-03-22T18:28:35.099Z,40.98
2019-03-22T18:31:04.738Z,41.19
2019-03-22T18:33:34.074Z,41.55
2019-03-22T18:36:03.376Z,41.78
2019-03-22T18:38:32.775Z,41.99
2019-03-22T18:41:02.177Z,42.08
2019-03-22T18:43:31.504Z,42.59
2019-03-22T18:46:00.999Z,42.71
2019-03-22T18:48:30.295Z,42.80
2019-03-22T18:50:59.621Z,43.19
2019-03-22T18:53:28.996Z,43.51
2019-03-22T18:55:58.327Z,43.88
2019-03-22T18:58:29.286Z,44.26
2019-03-22T19:00:58.592Z,44.68
2019-03-22T19:03:27.912Z,44.93
2019-03-22T19:05:57.263Z,45.29
2019-03-22T19:08:26.642Z,45.66
2019-03-22T19:10:56.141Z,45.89
2019-03-22T19:13:30.574Z,46.33
2019-03-22T19:15:56.530Z,49.43
2019-03-22T19:18:25.939Z,48.75
2019-03-22T19:20:55.298Z,48.98
2019-03-22T19:23:24.890Z,49.13
2019-03-22T19:25:54.288Z,50.24
2019-03-22T19:28:23.676Z,55.81
2019-03-22T19:30:53.006Z,54.72
2019-03-22T19:33:22.394Z,56.17
2019-03-22T19:35:51.680Z,56.91
2019-03-22T19:38:21.026Z,58.16
2019-03-22T19:40:50.455Z,57.95
2019-03-22T19:43:19.906Z,58.63
2019-03-22T19:45:49.291Z,60.44
2019-03-22T19:48:18.925Z,59.90
2019-03-22T19:50:48.349Z,59.28
2019-03-22T19:53:17.729Z,60.99
2019-03-22T19:55:47.225Z,63.11
2019-03-22T19:58:16.701Z,62.93
2019-03-22T20:00:46.174Z,61.55
2019-03-22T20:03:15.461Z,63.00
2019-03-22T20:05:44.838Z,63.96
2019-03-22T20:08:14.129Z,62.84
2019-03-22T20:10:43.449Z,66.12
2019-03-22T20:13:12.872Z,64.91
2019-03-22T20:15:42.268Z,66.58
2019-03-22T20:18:11.779Z,66.62
2019-03-22T20:20:41.270Z,67.16
2019-03-22T20:23:10.810Z,66.74
2019-03-22T20:25:40.097Z,66.67
2019-03-22T20:28:09.419Z,67.42
2019-03-22T20:30:38.800Z,67.12
2019-03-22T20:33:08.425Z,67.91
2019-03-22T20:35:37.752Z,67.87
2019-03-22T20:38:07.095Z,68.48
2019-03-22T20:40:36.672Z,68.73
2019-03-22T20:43:05.995Z,68.78
2019-03-22T20:45:35.535Z,67.61
2019-03-22T20:48:05.026Z,68.06
2019-03-22T20:50:36.057Z,69.41
2019-03-22T20:53:05.490Z,72.65
2019-03-22T20:55:35.154Z,69.54
2019-03-22T20:58:04.644Z,68.98
2019-03-22T21:00:34.290Z,68.66
2019-03-22T21:03:03.859Z,68.37
2019-03-22T21:05:33.365Z,68.70
2019-03-22T21:08:02.680Z,69.26
2019-03-22T21:10:32.111Z,71.22
2019-03-22T21:13:01.599Z,70.85
2019-03-22T21:15:31.020Z,73.47
2019-03-22T21:18:00.310Z,73.06
2019-03-22T21:20:29.623Z,73.50
2019-03-22T21:22:59.106Z,71.29
2019-03-22T21:25:28.589Z,72.82
2019-03-22T21:27:58.109Z,73.00
2019-03-22T21:30:27.546Z,73.52
2019-03-22T21:32:57.138Z,77.14
2019-03-22T21:35:36.654Z,78.63
2019-03-22T21:37:57.512Z,78.44
2019-03-22T21:40:26.818Z,81.30
2019-03-22T21:42:56.375Z,82.87
2019-03-22T21:45:25.668Z,84.82
2019-03-22T21:47:54.983Z,85.22
2019-03-22T21:50:24.460Z,85.95
2019-03-22T21:52:53.778Z,85.90
2019-03-22T21:55:23.058Z,86.31
2019-03-22T21:57:52.565Z,85.76
2019-03-22T22:00:21.851Z,85.50
2019-03-22T22:02:51.173Z,84.09
2019-03-22T22:05:20.459Z,85.45
2019-03-22T22:07:49.966Z,85.44
2019-03-22T22:10:19.246Z,86.08
2019-03-22T22:12:48.703Z,87.42
2019-03-22T22:15:17.979Z,88.49
2019-03-22T22:17:47.298Z,87.50
2019-03-22T22:20:16.665Z,88.41
2019-03-22T22:22:46.102Z,88.90
2019-03-22T22:25:15.407Z,88.58
2019-03-22T22:27:44.913Z,88.70
2019-03-22T22:30:14.639Z,91.47
2019-03-22T22:32:44.228Z,91.71
2019-03-22T22:35:13.700Z,90.99
2019-03-22T22:37:43.232Z,90.48
2019-03-22T22:40:13.652Z,90.04
2019-03-22T22:42:43.275Z,91.03
2019-03-22T22:45:13.029Z,92.01
2019-03-22T22:47:42.596Z,92.26
2019-03-22T22:50:12.605Z,93.24
2019-03-22T22:52:42.150Z,93.88
2019-03-22T22:55:11.898Z,93.54
2019-03-22T22:57:43.064Z,94.43
2019-03-22T23:00:14.394Z,95.16
2019-03-22T23:02:44.803Z,94.01
2019-03-22T23:05:15.297Z,94.18
2019-03-22T23:07:44.980Z,95.17
2019-03-22T23:10:14.625Z,95.54
2019-03-22T23:12:44.362Z,95.13
2019-03-22T23:15:14.051Z,94.77
2019-03-22T23:17:43.596Z,94.62
2019-03-22T23:20:13.157Z,95.00
2019-03-22T23:22:42.626Z,94.65
2019-03-22T23:25:12.190Z,94.67
2019-03-22T23:27:41.588Z,95.07
2019-03-22T23:30:12.612Z,94.19
2019-03-22T23:32:42.166Z,94.44
2019-03-22T23:35:12.409Z,94.22
2019-03-22T23:37:41.779Z,95.36
2019-03-22T23:40:11.301Z,95.52
2019-03-22T23:42:40.589Z,96.91
2019-03-22T23:45:11.427Z,96.56
2019-03-22T23:47:41.729Z,96.67
2019-03-22T23:50:11.564Z,96.66
2019-03-22T23:52:40.938Z,97.17
2019-03-22T23:55:10.567Z,97.42
2019-03-22T23:57:39.857Z,97.81
